sensor_id;sensor_type;location;lat;lon;timestamp;temperature;humidity
37788;DHT22;23627;53.302;-6.362;2023-06-19T00:00:33;19.40;99.90
37788;DHT22;23627;53.302;-6.362;2023-06-19T00:02:59;19.40;99.90
37788;DHT22;23627;53.302;-6.362;2023-06-19T00:05:25;19.30;99.90
37788;DHT22;23627;53.302;-6.362;2023-06-19T00:07:51;19.30;99.90
37788;DHT22;23627;53.302;-6.362;2023-06-19T00:10:17;19.30;99.90
37788;DHT22;23627;53.302;-6.362;2023-06-19T00:12:43;19.20;99.90
37788;DHT22;23627;53.302;-6.362;2023-06-19T00:15:09;19.20;99.90
37788;DHT22;23627;53.302;-6.362;2023-06-19T00:17:35;19.20;99.90
37788;DHT22;23627;53.302;-6.362;2023-06-19T00:20:03;19.20;99.90
37788;DHT22;23627;53.302;-6.362;2023-06-19T00:22:31;19.20;99.90
37788;DHT22;23627;53.302;-6.362;2023-06-19T00:24:56;19.10;99.90
37788;DHT22;23627;53.302;-6.362;2023-06-19T00:27:22;19.10;99.90
37788;DHT22;23627;53.302;-6.362;2023-06-19T00:29:50;19.10;99.90
37788;DHT22;23627;53.302;-6.362;2023-06-19T00:32:16;19.10;99.90
37788;DHT22;23627;53.302;-6.362;2023-06-19T00:34:42;19.10;99.90
37788;DHT22;23627;53.302;-6.362;2023-06-19T00:37:10;19.00;99.90
37788;DHT22;23627;53.302;-6.362;2023-06-19T00:39:39;19.00;99.90
37788;DHT22;23627;53.302;-6.362;2023-06-19T00:42:06;19.00;99.90
37788;DHT22;23627;53.302;-6.362;2023-06-19T00:44:31;18.90;99.90
37788;DHT22;23627;53.302;-6.362;2023-06-19T00:47:00;18.90;99.90
37788;DHT22;23627;53.302;-6.362;2023-06-19T00:49:28;18.90;99.90
37788;DHT22;23627;53.302;-6.362;2023-06-19T00:51:54;18.90;99.90
37788;DHT22;23627;53.302;-6.362;2023-06-19T00:54:21;18.90;99.90
37788;DHT22;23627;53.302;-6.362;2023-06-19T00:56:47;18.90;99.90
37788;DHT22;23627;53.302;-6.362;2023-06-19T00:59:19;18.80;99.90
37788;DHT22;23627;53.302;-6.362;2023-06-19T01:01:45;18.80;99.90
37788;DHT22;23627;53.302;-6.362;2023-06-19T01:04:12;18.80;99.90
37788;DHT22;23627;53.302;-6.362;2023-06-19T01:07:51;18.80;99.90
37788;DHT22;23627;53.302;-6.362;2023-06-19T01:09:48;18.80;99.90
37788;DHT22;23627;53.302;-6.362;2023-06-19T01:12:28;18.70;99.90
37788;DHT22;23627;53.302;-6.362;2023-06-19T01:15:02;18.70;99.90
37788;DHT22;23627;53.302;-6.362;2023-06-19T01:17:29;18.70;99.90
37788;DHT22;23627;53.302;-6.362;2023-06-19T01:19:57;18.70;99.90
37788;DHT22;23627;53.302;-6.362;2023-06-19T01:22:30;18.70;99.90
37788;DHT22;23627;53.302;-6.362;2023-06-19T01:24:57;18.60;99.90
37788;DHT22;23627;53.302;-6.362;2023-06-19T01:27:25;18.60;99.90
37788;DHT22;23627;53.302;-6.362;2023-06-19T01:29:52;18.60;99.90
37788;DHT22;23627;53.302;-6.362;2023-06-19T01:32:24;18.60;99.90
37788;DHT22;23627;53.302;-6.362;2023-06-19T01:34:52;18.50;99.90
37788;DHT22;23627;53.302;-6.362;2023-06-19T01:37:20;18.50;99.90
37788;DHT22;23627;53.302;-6.362;2023-06-19T01:39:48;18.50;99.90
37788;DHT22;23627;53.302;-6.362;2023-06-19T01:42:19;18.50;99.90
37788;DHT22;23627;53.302;-6.362;2023-06-19T01:44:47;18.40;99.90
37788;DHT22;23627;53.302;-6.362;2023-06-19T01:47:15;18.40;99.90
37788;DHT22;23627;53.302;-6.362;2023-06-19T01:49:47;18.40;99.90
37788;DHT22;23627;53.302;-6.362;2023-06-19T01:52:14;18.40;99.90
37788;DHT22;23627;53.302;-6.362;2023-06-19T01:54:40;18.40;99.90
37788;DHT22;23627;53.302;-6.362;2023-06-19T01:57:07;18.30;99.90
37788;DHT22;23627;53.302;-6.362;2023-06-19T01:59:33;18.30;99.90
37788;DHT22;23627;53.302;-6.362;2023-06-19T02:08:56;18.30;99.90
37788;DHT22;23627;53.302;-6.362;2023-06-19T02:11:22;18.20;99.90
37788;DHT22;23627;53.302;-6.362;2023-06-19T02:13:48;18.20;99.90
37788;DHT22;23627;53.302;-6.362;2023-06-19T02:16:58;18.20;99.90
37788;DHT22;23627;53.302;-6.362;2023-06-19T02:19:45;18.20;99.90
37788;DHT22;23627;53.302;-6.362;2023-06-19T02:22:10;18.20;99.90
37788;DHT22;23627;53.302;-6.362;2023-06-19T02:24:36;18.10;99.90
37788;DHT22;23627;53.302;-6.362;2023-06-19T02:27:03;18.10;99.90
37788;DHT22;23627;53.302;-6.362;2023-06-19T02:29:40;18.10;99.90
37788;DHT22;23627;53.302;-6.362;2023-06-19T02:32:06;18.10;99.90
37788;DHT22;23627;53.302;-6.362;2023-06-19T02:34:32;18.00;99.90
37788;DHT22;23627;53.302;-6.362;2023-06-19T02:40:37;18.00;99.90
37788;DHT22;23627;53.302;-6.362;2023-06-19T02:43:36;18.00;99.90
37788;DHT22;23627;53.302;-6.362;2023-06-19T02:46:02;18.00;99.90
37788;DHT22;23627;53.302;-6.362;2023-06-19T02:48:55;17.90;99.90
37788;DHT22;23627;53.302;-6.362;2023-06-19T02:51:59;17.90;99.90
37788;DHT22;23627;53.302;-6.362;2023-06-19T02:54:25;17.90;99.90
37788;DHT22;23627;53.302;-6.362;2023-06-19T02:56:59;17.90;99.90
37788;DHT22;23627;53.302;-6.362;2023-06-19T02:59:25;17.90;99.90
37788;DHT22;23627;53.302;-6.362;2023-06-19T03:01:53;17.80;99.90
37788;DHT22;23627;53.302;-6.362;2023-06-19T03:04:22;17.80;99.90
37788;DHT22;23627;53.302;-6.362;2023-06-19T03:06:53;17.80;99.90
37788;DHT22;23627;53.302;-6.362;2023-06-19T03:09:20;17.80;99.90
37788;DHT22;23627;53.302;-6.362;2023-06-19T03:11:48;17.80;99.90
37788;DHT22;23627;53.302;-6.362;2023-06-19T03:51:04;17.50;99.90
37788;DHT22;23627;53.302;-6.362;2023-06-19T03:53:30;17.50;99.90
37788;DHT22;23627;53.302;-6.362;2023-06-19T03:55:59;17.50;99.90
37788;DHT22;23627;53.302;-6.362;2023-06-19T03:58:28;17.40;99.90
37788;DHT22;23627;53.302;-6.362;2023-06-19T04:00:54;17.40;99.90
37788;DHT22;23627;53.302;-6.362;2023-06-19T04:03:20;17.40;99.90
37788;DHT22;23627;53.302;-6.362;2023-06-19T04:05:45;17.40;99.90
37788;DHT22;23627;53.302;-6.362;2023-06-19T04:08:13;17.40;99.90
37788;DHT22;23627;53.302;-6.362;2023-06-19T04:10:40;17.40;99.90
37788;DHT22;23627;53.302;-6.362;2023-06-19T04:13:07;17.40;99.90
37788;DHT22;23627;53.302;-6.362;2023-06-19T04:15:35;17.40;99.90
37788;DHT22;23627;53.302;-6.362;2023-06-19T04:18:03;17.40;99.90
37788;DHT22;23627;53.302;-6.362;2023-06-19T04:20:29;17.40;99.90
37788;DHT22;23627;53.302;-6.362;2023-06-19T04:22:58;17.40;99.90
37788;DHT22;23627;53.302;-6.362;2023-06-19T04:25:28;17.40;99.90
37788;DHT22;23627;53.302;-6.362;2023-06-19T04:27:55;17.30;99.90
37788;DHT22;23627;53.302;-6.362;2023-06-19T04:30:20;17.30;99.90
37788;DHT22;23627;53.302;-6.362;2023-06-19T04:32:47;17.30;99.90
37788;DHT22;23627;53.302;-6.362;2023-06-19T04:35:13;17.30;99.90
37788;DHT22;23627;53.302;-6.362;2023-06-19T04:37:40;17.30;99.90
37788;DHT22;23627;53.302;-6.362;2023-06-19T04:40:15;17.30;99.90
37788;DHT22;23627;53.302;-6.362;2023-06-19T04:42:46;17.40;99.90
37788;DHT22;23627;53.302;-6.362;2023-06-19T04:45:20;17.40;99.90
37788;DHT22;23627;53.302;-6.362;2023-06-19T04:47:48;17.40;99.90
37788;DHT22;23627;53.302;-6.362;2023-06-19T04:50:15;17.40;99.90
37788;DHT22;23627;53.302;-6.362;2023-06-19T04:52:43;17.40;99.90
37788;DHT22;23627;53.302;-6.362;2023-06-19T04:55:11;17.40;99.90
37788;DHT22;23627;53.302;-6.362;2023-06-19T04:57:41;17.40;99.90
37788;DHT22;23627;53.302;-6.362;2023-06-19T05:00:35;17.40;99.90
37788;DHT22;23627;53.302;-6.362;2023-06-19T05:03:04;17.40;99.90
37788;DHT22;23627;53.302;-6.362;2023-06-19T05:05:34;17.40;99.90
37788;DHT22;23627;53.302;-6.362;2023-06-19T05:08:30;17.50;99.90
37788;DHT22;23627;53.302;-6.362;2023-06-19T05:11:02;17.50;99.90
37788;DHT22;23627;53.302;-6.362;2023-06-19T05:13:28;17.50;99.90
37788;DHT22;23627;53.302;-6.362;2023-06-19T05:15:56;17.60;99.90
37788;DHT22;23627;53.302;-6.362;2023-06-19T05:18:24;17.60;99.90
37788;DHT22;23627;53.302;-6.362;2023-06-19T05:20:50;17.60;99.90
37788;DHT22;23627;53.302;-6.362;2023-06-19T05:23:17;17.60;99.90
37788;DHT22;23627;53.302;-6.362;2023-06-19T05:25:43;17.70;99.90
37788;DHT22;23627;53.302;-6.362;2023-06-19T05:28:19;17.70;99.90
37788;DHT22;23627;53.302;-6.362;2023-06-19T05:31:22;17.70;99.90
37788;DHT22;23627;53.302;-6.362;2023-06-19T05:33:51;17.70;99.90
37788;DHT22;23627;53.302;-6.362;2023-06-19T05:36:18;17.70;99.90
37788;DHT22;23627;53.302;-6.362;2023-06-19T05:38:51;17.70;99.90
37788;DHT22;23627;53.302;-6.362;2023-06-19T05:41:17;17.70;99.90
37788;DHT22;23627;53.302;-6.362;2023-06-19T05:43:42;17.80;99.90
37788;DHT22;23627;53.302;-6.362;2023-06-19T05:46:10;17.80;99.90
37788;DHT22;23627;53.302;-6.362;2023-06-19T05:48:39;17.80;99.90
37788;DHT22;23627;53.302;-6.362;2023-06-19T05:51:04;17.70;99.90
37788;DHT22;23627;53.302;-6.362;2023-06-19T05:53:30;17.80;99.90
37788;DHT22;23627;53.302;-6.362;2023-06-19T05:55:57;17.70;99.90
37788;DHT22;23627;53.302;-6.362;2023-06-19T05:58:23;17.70;99.90
37788;DHT22;23627;53.302;-6.362;2023-06-19T06:00:52;17.70;99.90
37788;DHT22;23627;53.302;-6.362;2023-06-19T06:03:28;17.70;99.90
37788;DHT22;23627;53.302;-6.362;2023-06-19T06:05:57;17.70;99.90
37788;DHT22;23627;53.302;-6.362;2023-06-19T06:08:55;17.70;99.90
37788;DHT22;23627;53.302;-6.362;2023-06-19T06:11:23;17.70;99.90
37788;DHT22;23627;53.302;-6.362;2023-06-19T06:13:48;17.70;99.90
37788;DHT22;23627;53.302;-6.362;2023-06-19T06:16:15;17.70;99.90
37788;DHT22;23627;53.302;-6.362;2023-06-19T06:18:41;17.70;99.90
37788;DHT22;23627;53.302;-6.362;2023-06-19T06:21:08;17.70;99.90
37788;DHT22;23627;53.302;-6.362;2023-06-19T06:23:34;17.70;99.90
37788;DHT22;23627;53.302;-6.362;2023-06-19T06:26:00;17.70;99.90
37788;DHT22;23627;53.302;-6.362;2023-06-19T06:28:36;17.70;99.90
37788;DHT22;23627;53.302;-6.362;2023-06-19T06:31:13;17.80;99.90
37788;DHT22;23627;53.302;-6.362;2023-06-19T06:33:41;17.70;99.90
37788;DHT22;23627;53.302;-6.362;2023-06-19T06:36:10;17.80;99.90
37788;DHT22;23627;53.302;-6.362;2023-06-19T06:38:36;17.80;99.90
37788;DHT22;23627;53.302;-6.362;2023-06-19T06:41:02;17.80;99.90
37788;DHT22;23627;53.302;-6.362;2023-06-19T06:43:28;17.80;99.90
37788;DHT22;23627;53.302;-6.362;2023-06-19T06:45:54;17.80;99.90
37788;DHT22;23627;53.302;-6.362;2023-06-19T06:48:20;17.80;99.90
37788;DHT22;23627;53.302;-6.362;2023-06-19T06:50:46;17.90;99.90
37788;DHT22;23627;53.302;-6.362;2023-06-19T06:53:12;17.90;99.90
37788;DHT22;23627;53.302;-6.362;2023-06-19T06:55:37;17.90;99.90
37788;DHT22;23627;53.302;-6.362;2023-06-19T06:58:03;18.00;99.90
37788;DHT22;23627;53.302;-6.362;2023-06-19T07:00:30;18.10;99.90
37788;DHT22;23627;53.302;-6.362;2023-06-19T07:02:56;18.10;99.90
37788;DHT22;23627;53.302;-6.362;2023-06-19T07:05:22;18.20;99.90
37788;DHT22;23627;53.302;-6.362;2023-06-19T07:07:48;18.40;99.90
37788;DHT22;23627;53.302;-6.362;2023-06-19T07:10:14;18.70;99.90
37788;DHT22;23627;53.302;-6.362;2023-06-19T07:12:47;19.10;99.90
37788;DHT22;23627;53.302;-6.362;2023-06-19T07:15:13;19.50;99.90
37788;DHT22;23627;53.302;-6.362;2023-06-19T07:17:39;20.00;99.90
37788;DHT22;23627;53.302;-6.362;2023-06-19T07:20:05;20.40;99.90
37788;DHT22;23627;53.302;-6.362;2023-06-19T07:22:32;20.80;99.90
37788;DHT22;23627;53.302;-6.362;2023-06-19T07:24:58;21.30;99.90
37788;DHT22;23627;53.302;-6.362;2023-06-19T07:27:23;21.70;99.90
37788;DHT22;23627;53.302;-6.362;2023-06-19T07:29:53;21.90;99.90
37788;DHT22;23627;53.302;-6.362;2023-06-19T07:32:19;22.20;99.90
37788;DHT22;23627;53.302;-6.362;2023-06-19T07:34:45;22.50;99.90
37788;DHT22;23627;53.302;-6.362;2023-06-19T07:37:11;22.80;99.90
37788;DHT22;23627;53.302;-6.362;2023-06-19T07:39:47;23.10;99.90
37788;DHT22;23627;53.302;-6.362;2023-06-19T07:42:17;23.30;99.90
37788;DHT22;23627;53.302;-6.362;2023-06-19T07:44:43;23.60;99.90
37788;DHT22;23627;53.302;-6.362;2023-06-19T07:47:09;23.80;99.90
37788;DHT22;23627;53.302;-6.362;2023-06-19T07:49:36;24.00;99.90
37788;DHT22;23627;53.302;-6.362;2023-06-19T07:52:02;24.20;99.90
37788;DHT22;23627;53.302;-6.362;2023-06-19T07:54:28;24.40;99.90
37788;DHT22;23627;53.302;-6.362;2023-06-19T07:56:54;24.60;99.90
37788;DHT22;23627;53.302;-6.362;2023-06-19T07:59:20;24.70;99.90
37788;DHT22;23627;53.302;-6.362;2023-06-19T08:01:46;24.90;99.90
37788;DHT22;23627;53.302;-6.362;2023-06-19T08:04:11;25.00;99.90
37788;DHT22;23627;53.302;-6.362;2023-06-19T08:06:37;25.20;99.90
37788;DHT22;23627;53.302;-6.362;2023-06-19T08:09:03;25.30;99.90
37788;DHT22;23627;53.302;-6.362;2023-06-19T08:11:29;25.50;99.90
37788;DHT22;23627;53.302;-6.362;2023-06-19T08:13:55;25.60;99.90
37788;DHT22;23627;53.302;-6.362;2023-06-19T08:16:21;25.70;99.90
37788;DHT22;23627;53.302;-6.362;2023-06-19T08:18:47;25.80;99.90
37788;DHT22;23627;53.302;-6.362;2023-06-19T08:21:13;26.00;99.90
37788;DHT22;23627;53.302;-6.362;2023-06-19T08:23:39;26.10;99.90
37788;DHT22;23627;53.302;-6.362;2023-06-19T08:26:05;26.30;99.90
37788;DHT22;23627;53.302;-6.362;2023-06-19T08:28:34;26.50;99.90
37788;DHT22;23627;53.302;-6.362;2023-06-19T08:31:00;26.60;99.90
37788;DHT22;23627;53.302;-6.362;2023-06-19T08:33:25;26.70;99.90
37788;DHT22;23627;53.302;-6.362;2023-06-19T08:35:52;26.90;99.90
37788;DHT22;23627;53.302;-6.362;2023-06-19T08:38:18;26.90;99.90
37788;DHT22;23627;53.302;-6.362;2023-06-19T08:40:44;27.00;99.90
37788;DHT22;23627;53.302;-6.362;2023-06-19T08:43:11;27.00;99.90
37788;DHT22;23627;53.302;-6.362;2023-06-19T08:45:37;27.10;99.90
37788;DHT22;23627;53.302;-6.362;2023-06-19T08:48:03;27.20;99.90
37788;DHT22;23627;53.302;-6.362;2023-06-19T08:50:32;27.10;99.90
37788;DHT22;23627;53.302;-6.362;2023-06-19T08:52:58;27.10;99.90
37788;DHT22;23627;53.302;-6.362;2023-06-19T08:55:24;27.10;99.90
37788;DHT22;23627;53.302;-6.362;2023-06-19T08:57:51;27.10;99.90
37788;DHT22;23627;53.302;-6.362;2023-06-19T09:00:25;27.00;99.90
37788;DHT22;23627;53.302;-6.362;2023-06-19T09:02:52;26.90;99.90
37788;DHT22;23627;53.302;-6.362;2023-06-19T09:05:23;26.70;99.90
37788;DHT22;23627;53.302;-6.362;2023-06-19T09:08:00;26.50;99.90
37788;DHT22;23627;53.302;-6.362;2023-06-19T09:10:26;26.30;99.90
37788;DHT22;23627;53.302;-6.362;2023-06-19T09:13:05;26.10;99.90
37788;DHT22;23627;53.302;-6.362;2023-06-19T09:15:35;26.10;99.90
37788;DHT22;23627;53.302;-6.362;2023-06-19T09:18:06;26.10;99.90
37788;DHT22;23627;53.302;-6.362;2023-06-19T09:20:34;26.00;99.90
37788;DHT22;23627;53.302;-6.362;2023-06-19T09:23:00;25.80;99.90
37788;DHT22;23627;53.302;-6.362;2023-06-19T09:25:26;25.70;99.90
37788;DHT22;23627;53.302;-6.362;2023-06-19T09:27:55;25.70;99.90
37788;DHT22;23627;53.302;-6.362;2023-06-19T09:30:27;25.70;99.90
37788;DHT22;23627;53.302;-6.362;2023-06-19T09:32:53;25.80;99.90
37788;DHT22;23627;53.302;-6.362;2023-06-19T09:35:19;25.80;99.90
37788;DHT22;23627;53.302;-6.362;2023-06-19T09:37:46;25.90;99.90
37788;DHT22;23627;53.302;-6.362;2023-06-19T09:40:12;26.00;99.90
37788;DHT22;23627;53.302;-6.362;2023-06-19T09:42:40;26.10;99.90
37788;DHT22;23627;53.302;-6.362;2023-06-19T09:45:08;26.20;99.90
37788;DHT22;23627;53.302;-6.362;2023-06-19T09:47:45;26.00;99.90
37788;DHT22;23627;53.302;-6.362;2023-06-19T09:50:13;25.90;99.90
37788;DHT22;23627;53.302;-6.362;2023-06-19T09:52:43;25.90;99.90
37788;DHT22;23627;53.302;-6.362;2023-06-19T09:55:11;26.00;99.90
37788;DHT22;23627;53.302;-6.362;2023-06-19T09:57:41;26.00;99.90
37788;DHT22;23627;53.302;-6.362;2023-06-19T10:00:09;26.10;99.90
37788;DHT22;23627;53.302;-6.362;2023-06-19T10:02:42;26.20;99.90
37788;DHT22;23627;53.302;-6.362;2023-06-19T10:05:08;26.30;99.90
37788;DHT22;23627;53.302;-6.362;2023-06-19T10:07:42;26.40;99.90
37788;DHT22;23627;53.302;-6.362;2023-06-19T10:10:22;26.60;99.90
37788;DHT22;23627;53.302;-6.362;2023-06-19T10:12:48;26.60;99.90
37788;DHT22;23627;53.302;-6.362;2023-06-19T10:20:28;26.60;99.90
37788;DHT22;23627;53.302;-6.362;2023-06-19T10:23:18;26.80;99.90
37788;DHT22;23627;53.302;-6.362;2023-06-19T10:25:45;26.80;99.90
37788;DHT22;23627;53.302;-6.362;2023-06-19T10:28:31;26.70;99.90
37788;DHT22;23627;53.302;-6.362;2023-06-19T10:31:08;26.70;99.90
37788;DHT22;23627;53.302;-6.362;2023-06-19T10:33:36;26.50;99.90
37788;DHT22;23627;53.302;-6.362;2023-06-19T10:36:19;26.20;99.90
37788;DHT22;23627;53.302;-6.362;2023-06-19T10:38:45;26.00;99.90
37788;DHT22;23627;53.302;-6.362;2023-06-19T10:41:24;25.70;99.90
37788;DHT22;23627;53.302;-6.362;2023-06-19T10:44:05;25.50;99.90
37788;DHT22;23627;53.302;-6.362;2023-06-19T10:46:34;25.30;99.90
37788;DHT22;23627;53.302;-6.362;2023-06-19T10:49:02;25.20;99.90
37788;DHT22;23627;53.302;-6.362;2023-06-19T10:51:40;25.20;99.90
37788;DHT22;23627;53.302;-6.362;2023-06-19T10:54:06;25.20;99.90
37788;DHT22;23627;53.302;-6.362;2023-06-19T10:56:32;25.20;99.90
37788;DHT22;23627;53.302;-6.362;2023-06-19T11:01:38;25.30;99.90
37788;DHT22;23627;53.302;-6.362;2023-06-19T11:04:09;25.30;99.90
37788;DHT22;23627;53.302;-6.362;2023-06-19T11:06:35;25.40;99.90
37788;DHT22;23627;53.302;-6.362;2023-06-19T11:09:02;25.50;99.90
37788;DHT22;23627;53.302;-6.362;2023-06-19T11:11:42;25.50;99.90
37788;DHT22;23627;53.302;-6.362;2023-06-19T11:14:09;25.60;99.90
37788;DHT22;23627;53.302;-6.362;2023-06-19T11:16:41;25.60;99.90
37788;DHT22;23627;53.302;-6.362;2023-06-19T11:19:08;25.60;99.90
37788;DHT22;23627;53.302;-6.362;2023-06-19T11:21:36;25.60;99.90
37788;DHT22;23627;53.302;-6.362;2023-06-19T11:24:11;25.70;99.90
37788;DHT22;23627;53.302;-6.362;2023-06-19T11:26:39;25.70;99.90
37788;DHT22;23627;53.302;-6.362;2023-06-19T11:29:19;25.70;99.90
37788;DHT22;23627;53.302;-6.362;2023-06-19T11:31:47;25.70;99.90
37788;DHT22;23627;53.302;-6.362;2023-06-19T11:34:14;25.70;99.90
37788;DHT22;23627;53.302;-6.362;2023-06-19T11:36:40;25.80;99.90
37788;DHT22;23627;53.302;-6.362;2023-06-19T11:39:14;25.90;99.90
37788;DHT22;23627;53.302;-6.362;2023-06-19T11:41:40;26.00;99.90
37788;DHT22;23627;53.302;-6.362;2023-06-19T11:44:08;26.20;99.90
37788;DHT22;23627;53.302;-6.362;2023-06-19T11:46:36;26.10;99.90
37788;DHT22;23627;53.302;-6.362;2023-06-19T11:49:15;26.10;99.90
37788;DHT22;23627;53.302;-6.362;2023-06-19T11:51:44;26.00;99.90
37788;DHT22;23627;53.302;-6.362;2023-06-19T11:54:12;25.90;99.90
37788;DHT22;23627;53.302;-6.362;2023-06-19T11:56:38;25.90;99.90
37788;DHT22;23627;53.302;-6.362;2023-06-19T11:59:08;25.90;99.90
37788;DHT22;23627;53.302;-6.362;2023-06-19T12:01:37;25.90;99.90
37788;DHT22;23627;53.302;-6.362;2023-06-19T12:04:04;26.00;99.90
37788;DHT22;23627;53.302;-6.362;2023-06-19T12:06:30;26.10;99.90
37788;DHT22;23627;53.302;-6.362;2023-06-19T12:08:56;26.20;99.90
37788;DHT22;23627;53.302;-6.362;2023-06-19T12:11:22;26.20;99.90
37788;DHT22;23627;53.302;-6.362;2023-06-19T12:13:48;26.10;99.90
37788;DHT22;23627;53.302;-6.362;2023-06-19T12:16:14;26.10;99.90
37788;DHT22;23627;53.302;-6.362;2023-06-19T12:18:40;26.20;99.90
37788;DHT22;23627;53.302;-6.362;2023-06-19T12:21:06;26.20;99.90
37788;DHT22;23627;53.302;-6.362;2023-06-19T12:23:32;26.20;99.90
37788;DHT22;23627;53.302;-6.362;2023-06-19T12:25:59;26.20;99.90
37788;DHT22;23627;53.302;-6.362;2023-06-19T12:28:25;26.10;99.90
37788;DHT22;23627;53.302;-6.362;2023-06-19T12:30:57;26.20;99.90
37788;DHT22;23627;53.302;-6.362;2023-06-19T12:33:23;26.30;99.90
37788;DHT22;23627;53.302;-6.362;2023-06-19T12:35:49;26.30;99.90
37788;DHT22;23627;53.302;-6.362;2023-06-19T12:38:24;26.30;99.90
37788;DHT22;23627;53.302;-6.362;2023-06-19T12:40:50;26.20;99.90
37788;DHT22;23627;53.302;-6.362;2023-06-19T12:43:15;26.10;99.90
37788;DHT22;23627;53.302;-6.362;2023-06-19T12:45:41;26.00;99.90
37788;DHT22;23627;53.302;-6.362;2023-06-19T12:48:08;25.80;99.90
37788;DHT22;23627;53.302;-6.362;2023-06-19T12:50:35;25.70;99.90
37788;DHT22;23627;53.302;-6.362;2023-06-19T12:53:01;25.60;99.90
37788;DHT22;23627;53.302;-6.362;2023-06-19T12:55:26;25.70;99.90
37788;DHT22;23627;53.302;-6.362;2023-06-19T12:57:52;25.80;99.90
37788;DHT22;23627;53.302;-6.362;2023-06-19T13:00:18;25.90;99.90
37788;DHT22;23627;53.302;-6.362;2023-06-19T13:02:44;26.00;99.90
37788;DHT22;23627;53.302;-6.362;2023-06-19T13:05:12;25.90;99.90
37788;DHT22;23627;53.302;-6.362;2023-06-19T13:07:38;25.90;99.90
37788;DHT22;23627;53.302;-6.362;2023-06-19T13:10:04;25.80;99.90
37788;DHT22;23627;53.302;-6.362;2023-06-19T13:12:32;25.70;99.90
37788;DHT22;23627;53.302;-6.362;2023-06-19T13:15:00;25.60;99.90
37788;DHT22;23627;53.302;-6.362;2023-06-19T13:17:26;25.60;99.90
37788;DHT22;23627;53.302;-6.362;2023-06-19T13:19:52;25.60;99.90
37788;DHT22;23627;53.302;-6.362;2023-06-19T13:22:17;25.60;99.90
37788;DHT22;23627;53.302;-6.362;2023-06-19T13:24:44;25.50;99.90
37788;DHT22;23627;53.302;-6.362;2023-06-19T13:27:13;25.50;99.90
37788;DHT22;23627;53.302;-6.362;2023-06-19T13:29:38;25.50;99.90
37788;DHT22;23627;53.302;-6.362;2023-06-19T13:32:06;25.50;99.90
37788;DHT22;23627;53.302;-6.362;2023-06-19T13:34:33;25.50;99.90
37788;DHT22;23627;53.302;-6.362;2023-06-19T13:36:59;25.40;99.90
37788;DHT22;23627;53.302;-6.362;2023-06-19T13:39:25;25.40;99.90
37788;DHT22;23627;53.302;-6.362;2023-06-19T13:41:51;25.40;99.90
37788;DHT22;23627;53.302;-6.362;2023-06-19T13:44:17;25.40;99.90
37788;DHT22;23627;53.302;-6.362;2023-06-19T13:46:43;25.40;99.90
37788;DHT22;23627;53.302;-6.362;2023-06-19T13:49:09;25.50;99.90
37788;DHT22;23627;53.302;-6.362;2023-06-19T13:51:37;25.50;99.90
37788;DHT22;23627;53.302;-6.362;2023-06-19T13:54:03;25.50;99.90
37788;DHT22;23627;53.302;-6.362;2023-06-19T13:56:30;25.50;99.90
37788;DHT22;23627;53.302;-6.362;2023-06-19T13:58:58;25.50;99.90
37788;DHT22;23627;53.302;-6.362;2023-06-19T14:01:24;25.50;99.90
37788;DHT22;23627;53.302;-6.362;2023-06-19T14:03:51;25.40;99.90
37788;DHT22;23627;53.302;-6.362;2023-06-19T14:06:17;25.30;99.90
37788;DHT22;23627;53.302;-6.362;2023-06-19T14:08:43;25.30;99.90
37788;DHT22;23627;53.302;-6.362;2023-06-19T14:11:09;25.20;99.90
37788;DHT22;23627;53.302;-6.362;2023-06-19T14:13:35;25.10;99.90
37788;DHT22;23627;53.302;-6.362;2023-06-19T14:16:01;25.10;99.90
37788;DHT22;23627;53.302;-6.362;2023-06-19T14:18:30;25.00;99.90
37788;DHT22;23627;53.302;-6.362;2023-06-19T14:21:14;25.00;99.90
37788;DHT22;23627;53.302;-6.362;2023-06-19T14:23:40;25.10;99.90
37788;DHT22;23627;53.302;-6.362;2023-06-19T14:26:12;25.20;99.90
37788;DHT22;23627;53.302;-6.362;2023-06-19T14:28:40;25.30;99.90
37788;DHT22;23627;53.302;-6.362;2023-06-19T14:31:06;25.40;99.90
37788;DHT22;23627;53.302;-6.362;2023-06-19T14:33:32;25.50;99.90
37788;DHT22;23627;53.302;-6.362;2023-06-19T14:36:01;25.50;99.90
37788;DHT22;23627;53.302;-6.362;2023-06-19T14:38:28;25.50;99.90
37788;DHT22;23627;53.302;-6.362;2023-06-19T14:41:00;25.50;99.90
37788;DHT22;23627;53.302;-6.362;2023-06-19T14:52:32;25.20;99.90
37788;DHT22;23627;53.302;-6.362;2023-06-19T15:03:32;24.90;99.90
37788;DHT22;23627;53.302;-6.362;2023-06-19T15:06:06;24.90;99.90
37788;DHT22;23627;53.302;-6.362;2023-06-19T15:08:33;25.00;99.90
37788;DHT22;23627;53.302;-6.362;2023-06-19T15:11:01;25.10;99.90
37788;DHT22;23627;53.302;-6.362;2023-06-19T15:13:34;25.20;99.90
37788;DHT22;23627;53.302;-6.362;2023-06-19T15:16:08;25.20;99.90
37788;DHT22;23627;53.302;-6.362;2023-06-19T15:18:43;25.40;99.90
37788;DHT22;23627;53.302;-6.362;2023-06-19T15:21:37;25.30;99.90
37788;DHT22;23627;53.302;-6.362;2023-06-19T15:24:36;25.40;99.90
37788;DHT22;23627;53.302;-6.362;2023-06-19T15:27:41;25.70;99.90
37788;DHT22;23627;53.302;-6.362;2023-06-19T15:30:52;25.80;99.90
37788;DHT22;23627;53.302;-6.362;2023-06-19T15:33:22;25.80;99.90
37788;DHT22;23627;53.302;-6.362;2023-06-19T15:35:55;25.80;99.90
37788;DHT22;23627;53.302;-6.362;2023-06-19T15:38:21;25.80;99.90
37788;DHT22;23627;53.302;-6.362;2023-06-19T15:40:48;25.80;99.90
37788;DHT22;23627;53.302;-6.362;2023-06-19T15:43:13;25.80;99.90
37788;DHT22;23627;53.302;-6.362;2023-06-19T15:45:39;25.90;99.90
37788;DHT22;23627;53.302;-6.362;2023-06-19T15:48:05;26.00;99.90
37788;DHT22;23627;53.302;-6.362;2023-06-19T15:50:31;26.10;99.90
37788;DHT22;23627;53.302;-6.362;2023-06-19T15:52:58;26.20;99.90
37788;DHT22;23627;53.302;-6.362;2023-06-19T15:55:24;26.30;99.90
37788;DHT22;23627;53.302;-6.362;2023-06-19T15:57:52;26.40;99.90
37788;DHT22;23627;53.302;-6.362;2023-06-19T16:00:17;26.40;99.90
37788;DHT22;23627;53.302;-6.362;2023-06-19T16:02:43;26.40;99.90
37788;DHT22;23627;53.302;-6.362;2023-06-19T16:05:12;26.40;99.90
37788;DHT22;23627;53.302;-6.362;2023-06-19T16:07:37;26.40;99.90
37788;DHT22;23627;53.302;-6.362;2023-06-19T16:10:04;26.40;99.90
37788;DHT22;23627;53.302;-6.362;2023-06-19T16:12:30;26.30;99.90
37788;DHT22;23627;53.302;-6.362;2023-06-19T16:14:55;26.20;99.90
37788;DHT22;23627;53.302;-6.362;2023-06-19T16:17:21;26.20;99.90
37788;DHT22;23627;53.302;-6.362;2023-06-19T16:19:47;26.20;99.90
37788;DHT22;23627;53.302;-6.362;2023-06-19T16:22:13;26.20;99.90
37788;DHT22;23627;53.302;-6.362;2023-06-19T16:24:39;26.20;99.90
37788;DHT22;23627;53.302;-6.362;2023-06-19T16:27:07;26.30;99.90
37788;DHT22;23627;53.302;-6.362;2023-06-19T16:29:33;26.30;99.90
37788;DHT22;23627;53.302;-6.362;2023-06-19T16:31:58;26.30;99.90
37788;DHT22;23627;53.302;-6.362;2023-06-19T16:34:24;26.20;99.90
37788;DHT22;23627;53.302;-6.362;2023-06-19T16:36:50;26.20;99.90
37788;DHT22;23627;53.302;-6.362;2023-06-19T16:39:16;26.20;99.90